KACB/ACB METAR and TAF weather

Enter ICAO airport designator
Station Type Date Time Source
KACB METAR 2019/12/09 05:55 UTC NOAA

KACB 090555Z AUTO 00000KT 7SM OVC022 01/00 A2981 RMK AO2 T00061002 10035 20005 400510005


Station Type Date Time Source
KACB Decoded METAR 2019/12/09 05:55 UTC NOAA

Bellaire, Antrim County Airport, MI, United States (KACB) 44-59-18N 085-11-54W
Dec 09, 2019 - 12:55 AM EST / 2019.12.09 0555 UTC
Wind: Calm:0
Visibility: 7 mile(s):0
Sky conditions: overcast
Temperature: 33.1 F (0.6 C)
Dew Point: 31.6 F (-0.2 C)
Relative Humidity: 94%
Pressure (altimeter): 29.81 in. Hg (1009 hPa)
ob: KACB 090555Z AUTO 00000KT 7SM OVC022 01/00 A2981 RMK AO2 T00061002 10035 20005 400510005
cycle: 6

Station Type Date Time Source
KACB TAF UTC NOAA

Error!

Example: see airport list